Latest Coastal Weather Observations for Weipa

IDQ60701

Issued at 2:25 am EST Friday 3 October 2014 (issued every 10 minutes, with the page automatically refreshed every 10 minutes)

About coastal observations | Map of coastal stations | Coastal observations for QLD | Marine services | Other Formats
Station Details ID: 027045 Name: WEIPA AERO Lat: -12.68 Lon: 141.92 Height: 17.96 m
Data from the previous 72 hours. | See also: Recent months at Weipa
Date/Time
EST
Temp

°C
Wind Pressure Rain
since 9am
mm
Weather Cloud Vis
km
Sea
Height
m
Swell
Dir
 
Speed
knots
Gust
knots
hPa Trend Height
m
Period
s
Dir
03/02:00am 19.1 CALM 0 1 1012.4 - 0.0 - - 10 - - - -
03/01:30am 19.5 CALM 0 0 1012.6 - 0.0 - - 10 - - - -
03/01:00am 19.9 CALM 0 1 1012.9 - 0.0 - - 10 - - - -
03/12:30am 21.0 ESE 1 2 1013.2 - 0.0 - - 10 - - - -
03/12:00am 21.4 SSE 0 1 1013.4 - 0.0 - - 10 - - - -
 
Date/Time
EST
Temp

°C
Wind Pressure Rain
since 9am
mm
Weather Cloud Vis
km
Sea
Height
m
Swell
Dir
 
Speed
knots
Gust
knots
hPa Trend Height
m
Period
s
Dir
02/11:30pm 22.6 E 1 2 1013.9 - 0.0 - - 10 - - - -
02/11:00pm 23.4 E 4 6 1014.0 - 0.0 - - 10 - - - -
02/10:30pm 24.0 E 6 11 1014.2 - 0.0 - - 10 - - - -
02/10:00pm 24.6 E 7 10 1014.0 - 0.0 - - 10 - - - -
02/09:30pm 25.2 ENE 5 7 1013.7 - 0.0 - - 10 - - - -
02/09:00pm 25.7 ENE 4 7 1013.2 - 0.0 - - 10 - - - -
02/08:30pm 25.4 E 5 6 1013.1 - 0.0 - Cloudy 10 - - - -
02/08:00pm 25.4 N 1 3 1012.5 - 0.0 - - 10 - - - -
02/07:30pm 25.5 N 2 3 1012.0 - 0.0 - - 10 - - - -
02/07:00pm 26.0 N 5 8 1011.3 - 0.0 - - 10 - - - -
02/06:30pm 26.9 NW 5 8 1010.4 - 0.0 - - 10 - - - -
02/06:29pm 26.8 NW 5 7 1010.4 - 0.0 - - 10 - - - -
02/06:00pm 27.5 W 3 6 1009.5 - 0.0 - - 6 - - - -
02/05:30pm 28.3 W 5 9 1009.0 - 0.0 - - 6 - - - -
02/05:05pm 28.8 W 6 11 1008.8 - 0.0 - - 6 - - - -
02/05:04pm 29.0 W 6 11 1008.7 - 0.0 - - 7 - - - -
02/05:00pm 28.8 WSW 7 13 1008.7 - 0.0 - - 7 - - - -
02/04:30pm 29.7 WSW 6 10 1008.5 - 0.0 - - 5 - - - -
02/04:16pm 29.8 W 7 13 1008.5 - 0.0 - - 6 - - - -
02/04:00pm 30.6 W 7 12 1008.6 - 0.0 - - 9 - - - -
02/03:30pm 31.1 W 7 11 1008.7 - 0.0 - - 10 - - - -
02/03:00pm 30.3 W 9 15 1008.8 F 0.0 Haze Mostly clear 8 - - - -
02/02:30pm 30.6 W 9 14 1009.3 - 0.0 - - 10 - - - -
02/02:00pm 34.5 SSE 8 13 1009.7 - 0.0 - - 10 - - - -
02/01:30pm 32.6 SE 7 15 1010.2 - 0.0 - - 10 - - - -
02/01:00pm 32.1 SE 6 12 1010.7 - 0.0 - - 10 - - - -
02/12:30pm 31.9 SSE 8 16 1011.3 - 0.0 - - 10 - - - -
02/12:00pm 30.5 SE 7 13 1012.1 F 0.0 Fine Mostly cloudy 35 - - - -
02/11:30am 30.0 E 9 14 1012.8 - 0.0 - - 10 - - - -
02/11:00am 28.9 E 8 14 1013.4 - 0.0 - Partly cloudy 10 - - - -
02/10:30am 28.2 E 9 15 1013.8 - 0.0 - Partly cloudy 10 - - - -
02/10:00am 27.8 E 7 14 1014.1 - 0.0 - Mostly clear 10 - - - -
02/09:30am 26.4 E 8 12 1014.4 - 0.0 - - 10 - - - -
02/09:00am 25.5 E 8 12 1014.4 F 0.0 Haze Mostly clear 25 - - - -
02/08:30am 24.5 SE 6 9 1014.5 - 0.0 - - 10 - - - -
02/08:00am 22.7 ESE 3 5 1014.3 - 0.0 - - 10 - - - -
02/07:30am 21.3 S 1 4 1014.1 - 0.0 - - 10 - - - -
02/07:00am 18.9 CALM 0 1 1013.8 - 0.0 - - 10 - - - -
02/06:30am 17.5 CALM 0 2 1013.5 - 0.0 - - 10 - - - -
02/06:00am 17.7 CALM 0 0 1013.2 R 0.0 Haze Partly cloudy 20 - - - -
02/05:30am 17.8 SSE 1 2 1013.0 - 0.0 - - 10 - - - -
02/05:00am 17.8 CALM 0 0 1012.9 - 0.0 - - 10 - - - -
02/04:30am 17.8 S 1 2 1012.6 - 0.0 - - 10 - - - -
02/04:00am 17.8 CALM 0 1 1012.1 - 0.0 - - 10 - - - -
02/03:30am 18.7 SE 1 2 1012.2 - 0.0 - - 10 - - - -
02/03:00am 18.9 CALM 0 0 1012.2 - 0.0 - - 10 - - - -
02/02:30am 19.5 CALM 0 0 1012.5 - 0.0 - - 10 - - - -
02/02:00am 19.8 CALM 0 0 1012.7 - 0.0 - - 10 - - - -
02/01:30am 20.1 CALM 0 0 1013.0 - 0.0 - - 10 - - - -
02/01:00am 20.3 CALM 0 1 1013.2 - 0.0 - - 10 - - - -
02/12:30am 21.1 CALM 0 1 1013.6 - 0.0 - - 10 - - - -
02/12:00am 22.2 E 2 3 1013.7 - 0.0 - - 10 - - - -
 
Date/Time
EST
Temp

°C
Wind Pressure Rain
since 9am
mm
Weather Cloud Vis
km
Sea
Height
m
Swell
Dir
 
Speed
knots
Gust
knots
hPa Trend Height
m
Period
s
Dir
01/11:30pm 23.0 E 3 5 1014.0 - 0.0 - - 10 - - - -
01/11:00pm 23.4 ESE 5 8 1014.1 - 0.0 - - 10 - - - -
01/10:30pm 24.0 E 6 9 1013.9 - 0.0 - - 10 - - - -
01/10:00pm 24.3 ESE 5 9 1014.0 - 0.0 - - 10 - - - -
01/09:30pm 24.8 E 5 9 1013.9 - 0.0 - - 10 - - - -
01/09:00pm 25.3 E 6 10 1013.2 - 0.0 - - 10 - - - -
01/08:30pm 25.5 NE 3 7 1013.2 - 0.0 - - 10 - - - -
01/08:00pm 24.9 N 2 4 1012.7 - 0.0 - - 10 - - - -
01/07:30pm 25.2 N 3 4 1012.2 - 0.0 - - 10 - - - -
01/07:00pm 25.2 WNW 5 9 1011.4 - 0.0 - - 10 - - - -
01/06:30pm 25.9 WNW 4 8 1011.1 - 0.0 - - 10 - - - -
01/06:00pm 27.4 WNW 3 7 1010.3 - 0.0 - - 10 - - - -
01/05:30pm 31.5 ESE 9 15 1010.0 - 0.0 - Partly cloudy 10 - - - -
01/05:00pm 32.3 E 11 17 1009.5 - 0.0 - Partly cloudy 10 - - - -
01/04:30pm 32.5 E 14 22 1009.3 - 0.0 - Partly cloudy 10 - - - -
01/04:00pm 33.7 SE 13 18 1009.1 - 0.0 - Partly cloudy 10 - - - -
01/03:30pm 33.9 E 15 21 1009.0 - 0.0 - - 10 - - - -
01/03:00pm 34.1 ESE 9 20 1009.0 F 0.0 Smoke Partly cloudy 35 - - - -
01/02:30pm 34.1 SE 11 17 1009.6 - 0.0 - - 10 - - - -
01/02:00pm 33.4 E 12 22 1010.0 - 0.0 - - 10 - - - -
01/01:30pm 33.7 ESE 15 24 1010.5 - 0.0 - - 10 - - - -
01/01:00pm 33.3 ESE 13 21 1011.0 - 0.0 - - 10 - - - -
01/12:30pm 32.6 SE 10 20 1011.7 - 0.0 - - 10 - - - -
01/12:00pm 31.6 ESE 11 20 1012.3 F 0.0 Smoke Partly cloudy 35 - - - -
01/11:30am 30.7 E 15 21 1013.1 - 0.0 - - 10 - - - -
01/11:00am 29.9 E 13 19 1013.8 - 0.0 - - 10 - - - -
01/10:30am 28.6 ESE 13 18 1014.4 - 0.0 - - 10 - - - -
01/10:00am 27.8 ESE 13 20 1014.8 - 0.0 - Mostly clear 10 - - - -
01/09:30am 27.1 ESE 10 16 1015.1 - 0.0 - - 10 - - - -
01/09:00am 25.7 ESE 12 17 1015.3 F 0.0 Haze Partly cloudy 25 - - - -
01/08:30am 24.3 ESE 9 16 1015.4 - 0.0 - - 10 - - - -
01/08:00am 23.0 ESE 7 11 1015.2 - 0.0 - - 10 - - - -
01/07:30am 20.9 SE 5 7 1014.8 - 0.0 - - 10 - - - -
01/07:00am 19.0 SE 1 2 1014.4 - 0.0 - - 10 - - - -
01/06:30am 17.9 SE 2 3 1014.3 - 0.0 - - 10 - - - -
01/06:00am 18.2 SSE 1 2 1013.9 S 0.0 Haze Partly cloudy 12 - - - -
01/05:30am 18.3 SSE 3 4 1013.8 - 0.0 - - 10 - - - -
01/05:00am 19.0 SSE 3 4 1013.4 - 0.0 - - 10 - - - -
01/04:30am 19.1 SE 3 3 1013.1 - 0.0 - - 10 - - - -
01/04:00am 19.4 ESE 3 4 1013.0 - 0.0 - - 10 - - - -
01/03:30am 19.8 ESE 3 4 1013.1 - 0.0 - - 10 - - - -
01/03:00am 19.9 ESE 3 3 1013.0 - 0.0 - - 10 - - - -
01/02:30am 20.3 ESE 3 3 1013.4 - 0.0 - - 10 - - - -
01/02:00am 21.0 E 3 5 1013.6 - 0.0 - - 10 - - - -
01/01:30am 21.5 E 4 8 1013.7 - 0.0 - - 10 - - - -
01/01:00am 21.8 E 5 7 1014.0 - 0.0 - - 10 - - - -
01/12:30am 22.1 E 5 8 1014.5 - 0.0 - - 10 - - - -
01/12:00am 22.7 E 8 12 1014.6 - 0.0 - - 10 - - - -
 
Date/Time
EST
Temp

°C
Wind Pressure Rain
since 9am
mm
Weather Cloud Vis
km
Sea
Height
m
Swell
Dir
 
Speed
knots
Gust
knots
hPa Trend Height
m
Period
s
Dir
30/11:30pm 22.8 E 6 11 1014.9 - 0.0 - - 10 - - - -
30/11:00pm 23.0 E 6 11 1015.1 - 0.0 - - 10 - - - -
30/10:30pm 23.5 E 7 10 1015.2 - 0.0 - - 10 - - - -
30/10:00pm 23.9 E 9 15 1015.1 - 0.0 - - 10 - - - -
30/09:30pm 24.5 E 8 16 1015.0 - 0.0 - - 10 - - - -
30/09:00pm 25.1 E 10 17 1014.5 - 0.0 - - 10 - - - -
30/08:30pm 25.7 E 10 16 1014.3 - 0.0 - - 10 - - - -
30/08:00pm 26.5 E 9 15 1013.8 - 0.0 - - 10 - - - -
30/07:30pm 27.1 E 6 11 1013.3 - 0.0 - - 10 - - - -
30/07:00pm 27.9 E 9 16 1012.8 - 0.0 - Partly cloudy 10 - - - -
30/06:30pm 28.8 E 9 14 1012.2 - 0.0 - - 10 - - - -
30/06:00pm 29.5 E 11 17 1011.5 - 0.0 - - 10 - - - -
30/05:30pm 30.6 E 11 16 1011.2 - 0.0 - Partly cloudy 10 - - - -
30/05:00pm 31.1 ESE 10 14 1010.8 - 0.0 - Partly cloudy 10 - - - -
30/04:30pm 31.6 ESE 11 16 1010.7 - 0.0 - Partly cloudy 10 - - - -
30/04:00pm 32.1 ESE 11 18 1010.6 - 0.0 - Partly cloudy 10 - - - -
30/03:30pm 32.6 E 11 15 1010.6 - 0.0 - - 10 - - - -
30/03:00pm 32.9 E 11 17 1010.5 F 0.0 Smoke Mostly cloudy 30 - - - -
30/02:30pm 33.3 E 11 20 1010.9 - 0.0 - - 10 - - - -
30/02:00pm 33.4 SE 10 18 1011.1 - 0.0 - Partly cloudy 10 - - - -
30/01:30pm 31.6 SE 7 12 1011.6 - 0.0 - Partly cloudy 10 - - - -
30/01:00pm 32.2 ENE 12 19 1012.3 - 0.0 - Partly cloudy 10 - - - -
30/12:30pm 31.4 E 11 17 1012.9 - 0.0 - Partly cloudy 10 - - - -
30/12:00pm 30.7 E 13 19 1013.4 F 0.0 Fine Mostly cloudy 30 - - - -
30/11:30am 30.1 ENE 13 19 1014.1 - 0.0 - - 10 - - - -
30/11:00am 30.4 E 12 20 1014.7 - 0.0 - - 10 - - - -
30/10:30am 29.2 E 13 22 1014.9 - 0.0 - - 10 - - - -
30/10:00am 27.9 E 13 16 1015.4 - 0.0 - Mostly clear 10 - - - -
30/09:30am 26.3 ESE 14 19 1015.6 - 0.0 - - 10 - - - -
30/09:00am 25.8 E 11 16 1015.7 F 0.0 Haze Mostly cloudy 20 - - - -
30/08:30am 24.8 SE 7 12 1015.7 - 0.0 - - 10 - - - -
30/08:00am 22.7 SSE 4 7 1015.5 - 0.0 - - 10 - - - -
30/07:30am 21.3 SSE 4 7 1015.2 - 0.0 - - 10 - - - -
30/07:00am 19.7 SSE 3 4 1014.9 - 0.0 - Mostly cloudy 9 - - - -
30/06:30am 18.3 SSE 3 4 1014.6 - 0.0 - - 10 - - - -
30/06:00am 17.9 SSE 2 3 1014.2 R 0.0 Haze Partly cloudy 10 - - - -
30/05:30am 18.5 S 3 4 1013.9 - 0.0 - - 10 - - - -
30/05:00am 18.4 S 1 2 1013.6 - 0.0 - - 10 - - - -
30/04:30am 18.6 CALM 0 1 1013.3 - 0.0 - - 10 - - - -
30/04:00am 19.2 S 2 3 1013.0 - 0.0 - - 10 - - - -
30/03:30am 19.7 S 2 4 1012.9 - 0.0 - - 10 - - - -
30/03:00am 20.1 SE 2 3 1013.0 - 0.0 - - 10 - - - -
30/02:30am 20.8 SE 3 5 1013.2 - 0.0 - - 10 - - - -

Other Formats:

Comma delimited format used in spreadsheet applications
http://www.bom.gov.au/fwo/IDQ60701/IDQ60701.94170.axf

JavaScript Object Notation format (JSON) in row-major order
http://www.bom.gov.au/fwo/IDQ60701/IDQ60701.94170.json